sensor_id;sensor_type;location;lat;lon;timestamp;P1;durP1;ratioP1;P2;durP2;ratioP2
40162;SDS011;25881;47.462;19.304;2023-05-07T00:00:38;15.57;;;8.48;;
40162;SDS011;25881;47.462;19.304;2023-05-07T00:03:06;13.50;;;8.52;;
40162;SDS011;25881;47.462;19.304;2023-05-07T00:05:32;13.10;;;7.35;;
40162;SDS011;25881;47.462;19.304;2023-05-07T00:07:57;12.60;;;8.10;;
40162;SDS011;25881;47.462;19.304;2023-05-07T00:10:23;15.45;;;8.40;;
40162;SDS011;25881;47.462;19.304;2023-05-07T00:12:48;12.25;;;7.03;;
40162;SDS011;25881;47.462;19.304;2023-05-07T00:15:14;15.00;;;8.18;;
40162;SDS011;25881;47.462;19.304;2023-05-07T00:17:41;11.48;;;6.53;;
40162;SDS011;25881;47.462;19.304;2023-05-07T00:20:07;13.55;;;7.32;;
40162;SDS011;25881;47.462;19.304;2023-05-07T00:22:33;13.27;;;7.60;;
40162;SDS011;25881;47.462;19.304;2023-05-07T00:25:00;11.32;;;6.68;;
40162;SDS011;25881;47.462;19.304;2023-05-07T00:27:26;12.65;;;6.72;;
40162;SDS011;25881;47.462;19.304;2023-05-07T00:29:52;14.52;;;7.43;;
40162;SDS011;25881;47.462;19.304;2023-05-07T00:32:19;14.57;;;7.85;;
40162;SDS011;25881;47.462;19.304;2023-05-07T00:34:45;10.85;;;6.82;;
40162;SDS011;25881;47.462;19.304;2023-05-07T00:37:10;12.63;;;7.75;;
40162;SDS011;25881;47.462;19.304;2023-05-07T00:39:37;13.77;;;7.93;;
40162;SDS011;25881;47.462;19.304;2023-05-07T00:42:03;12.95;;;6.93;;
40162;SDS011;25881;47.462;19.304;2023-05-07T00:44:29;14.02;;;7.97;;
40162;SDS011;25881;47.462;19.304;2023-05-07T00:46:56;12.23;;;6.85;;
40162;SDS011;25881;47.462;19.304;2023-05-07T00:49:22;13.98;;;7.88;;
40162;SDS011;25881;47.462;19.304;2023-05-07T00:51:47;14.35;;;7.43;;
40162;SDS011;25881;47.462;19.304;2023-05-07T00:54:13;12.13;;;6.88;;
40162;SDS011;25881;47.462;19.304;2023-05-07T00:56:38;12.98;;;7.28;;
40162;SDS011;25881;47.462;19.304;2023-05-07T00:59:05;11.95;;;6.97;;
40162;SDS011;25881;47.462;19.304;2023-05-07T01:01:33;15.75;;;8.13;;
40162;SDS011;25881;47.462;19.304;2023-05-07T01:03:59;14.77;;;7.68;;
40162;SDS011;25881;47.462;19.304;2023-05-07T01:06:24;11.43;;;6.90;;
40162;SDS011;25881;47.462;19.304;2023-05-07T01:11:18;11.13;;;6.83;;
40162;SDS011;25881;47.462;19.304;2023-05-07T01:13:45;13.80;;;7.63;;
40162;SDS011;25881;47.462;19.304;2023-05-07T01:16:10;14.07;;;7.88;;
40162;SDS011;25881;47.462;19.304;2023-05-07T01:18:36;14.45;;;7.60;;
40162;SDS011;25881;47.462;19.304;2023-05-07T01:21:01;12.02;;;7.13;;
40162;SDS011;25881;47.462;19.304;2023-05-07T01:23:29;13.40;;;7.90;;
40162;SDS011;25881;47.462;19.304;2023-05-07T01:25:58;15.73;;;7.90;;
40162;SDS011;25881;47.462;19.304;2023-05-07T01:28:24;11.80;;;7.55;;
40162;SDS011;25881;47.462;19.304;2023-05-07T01:31:00;13.90;;;7.60;;
40162;SDS011;25881;47.462;19.304;2023-05-07T01:33:29;13.43;;;7.82;;
40162;SDS011;25881;47.462;19.304;2023-05-07T01:35:58;14.75;;;7.10;;
40162;SDS011;25881;47.462;19.304;2023-05-07T01:38:31;13.35;;;7.57;;
40162;SDS011;25881;47.462;19.304;2023-05-07T01:40:57;16.60;;;8.25;;
40162;SDS011;25881;47.462;19.304;2023-05-07T01:43:25;13.30;;;8.13;;
40162;SDS011;25881;47.462;19.304;2023-05-07T01:45:52;11.65;;;7.35;;
40162;SDS011;25881;47.462;19.304;2023-05-07T01:48:19;13.98;;;8.30;;
40162;SDS011;25881;47.462;19.304;2023-05-07T01:50:46;12.68;;;7.20;;
40162;SDS011;25881;47.462;19.304;2023-05-07T01:53:14;12.77;;;7.75;;
40162;SDS011;25881;47.462;19.304;2023-05-07T01:58:10;14.25;;;7.78;;
40162;SDS011;25881;47.462;19.304;2023-05-07T02:00:36;11.65;;;7.10;;
40162;SDS011;25881;47.462;19.304;2023-05-07T02:03:03;13.32;;;7.57;;
40162;SDS011;25881;47.462;19.304;2023-05-07T02:05:29;14.43;;;7.90;;
40162;SDS011;25881;47.462;19.304;2023-05-07T02:07:57;13.40;;;7.93;;
40162;SDS011;25881;47.462;19.304;2023-05-07T02:10:24;15.93;;;8.43;;
40162;SDS011;25881;47.462;19.304;2023-05-07T02:12:51;14.63;;;8.98;;
40162;SDS011;25881;47.462;19.304;2023-05-07T02:15:19;14.93;;;8.50;;
40162;SDS011;25881;47.462;19.304;2023-05-07T02:17:58;14.27;;;8.27;;
40162;SDS011;25881;47.462;19.304;2023-05-07T02:20:28;13.30;;;7.95;;
40162;SDS011;25881;47.462;19.304;2023-05-07T02:22:54;16.23;;;8.13;;
40162;SDS011;25881;47.462;19.304;2023-05-07T02:25:19;15.40;;;8.15;;
40162;SDS011;25881;47.462;19.304;2023-05-07T02:27:48;15.05;;;8.15;;
40162;SDS011;25881;47.462;19.304;2023-05-07T02:32:40;14.57;;;7.72;;
40162;SDS011;25881;47.462;19.304;2023-05-07T02:35:09;15.93;;;8.27;;
40162;SDS011;25881;47.462;19.304;2023-05-07T02:37:35;16.73;;;8.90;;
40162;SDS011;25881;47.462;19.304;2023-05-07T02:40:01;15.75;;;7.95;;
40162;SDS011;25881;47.462;19.304;2023-05-07T02:42:28;16.73;;;8.93;;
40162;SDS011;25881;47.462;19.304;2023-05-07T02:44:54;15.93;;;9.38;;
40162;SDS011;25881;47.462;19.304;2023-05-07T02:47:20;16.55;;;9.30;;
40162;SDS011;25881;47.462;19.304;2023-05-07T02:49:47;16.80;;;8.93;;
40162;SDS011;25881;47.462;19.304;2023-05-07T02:52:13;17.58;;;9.05;;
40162;SDS011;25881;47.462;19.304;2023-05-07T02:54:40;17.33;;;8.32;;
40162;SDS011;25881;47.462;19.304;2023-05-07T02:57:07;18.58;;;9.70;;
40162;SDS011;25881;47.462;19.304;2023-05-07T02:59:36;15.75;;;8.73;;
40162;SDS011;25881;47.462;19.304;2023-05-07T03:02:01;15.32;;;8.35;;
40162;SDS011;25881;47.462;19.304;2023-05-07T03:04:27;13.45;;;7.55;;
40162;SDS011;25881;47.462;19.304;2023-05-07T03:06:53;13.98;;;8.13;;
40162;SDS011;25881;47.462;19.304;2023-05-07T03:09:19;13.98;;;7.47;;
40162;SDS011;25881;47.462;19.304;2023-05-07T03:11:46;13.48;;;8.15;;
40162;SDS011;25881;47.462;19.304;2023-05-07T03:14:12;13.52;;;7.30;;
40162;SDS011;25881;47.462;19.304;2023-05-07T03:16:39;14.07;;;8.05;;
40162;SDS011;25881;47.462;19.304;2023-05-07T03:19:04;18.80;;;9.38;;
40162;SDS011;25881;47.462;19.304;2023-05-07T03:21:31;16.98;;;8.93;;
40162;SDS011;25881;47.462;19.304;2023-05-07T03:23:58;18.55;;;9.13;;
40162;SDS011;25881;47.462;19.304;2023-05-07T03:26:25;15.57;;;8.77;;
40162;SDS011;25881;47.462;19.304;2023-05-07T03:28:50;17.85;;;8.75;;
40162;SDS011;25881;47.462;19.304;2023-05-07T03:31:16;18.27;;;10.40;;
40162;SDS011;25881;47.462;19.304;2023-05-07T03:33:56;14.18;;;8.00;;
40162;SDS011;25881;47.462;19.304;2023-05-07T03:36:24;17.60;;;9.75;;
40162;SDS011;25881;47.462;19.304;2023-05-07T03:38:52;18.67;;;9.35;;
40162;SDS011;25881;47.462;19.304;2023-05-07T03:41:19;21.35;;;10.20;;
40162;SDS011;25881;47.462;19.304;2023-05-07T03:43:45;19.80;;;10.50;;
40162;SDS011;25881;47.462;19.304;2023-05-07T03:46:13;17.20;;;9.68;;
40162;SDS011;25881;47.462;19.304;2023-05-07T03:48:39;19.30;;;10.07;;
40162;SDS011;25881;47.462;19.304;2023-05-07T03:51:06;19.13;;;10.63;;
40162;SDS011;25881;47.462;19.304;2023-05-07T03:53:32;19.52;;;9.93;;
40162;SDS011;25881;47.462;19.304;2023-05-07T03:55:58;18.70;;;10.60;;
40162;SDS011;25881;47.462;19.304;2023-05-07T03:58:24;19.70;;;10.75;;
40162;SDS011;25881;47.462;19.304;2023-05-07T04:00:50;18.42;;;10.45;;
40162;SDS011;25881;47.462;19.304;2023-05-07T04:03:17;23.25;;;10.90;;
40162;SDS011;25881;47.462;19.304;2023-05-07T04:05:45;20.67;;;10.65;;
40162;SDS011;25881;47.462;19.304;2023-05-07T04:08:10;23.17;;;12.00;;
40162;SDS011;25881;47.462;19.304;2023-05-07T04:10:36;21.85;;;11.13;;
40162;SDS011;25881;47.462;19.304;2023-05-07T04:13:01;16.80;;;9.95;;
40162;SDS011;25881;47.462;19.304;2023-05-07T04:15:26;19.23;;;10.13;;
40162;SDS011;25881;47.462;19.304;2023-05-07T04:17:52;20.88;;;10.63;;
40162;SDS011;25881;47.462;19.304;2023-05-07T04:20:19;19.52;;;9.40;;
40162;SDS011;25881;47.462;19.304;2023-05-07T04:22:45;20.02;;;9.98;;
40162;SDS011;25881;47.462;19.304;2023-05-07T04:25:10;18.65;;;10.50;;
40162;SDS011;25881;47.462;19.304;2023-05-07T04:27:39;16.33;;;10.13;;
40162;SDS011;25881;47.462;19.304;2023-05-07T04:30:06;14.48;;;8.50;;
40162;SDS011;25881;47.462;19.304;2023-05-07T04:32:33;17.70;;;9.77;;
40162;SDS011;25881;47.462;19.304;2023-05-07T04:34:59;19.77;;;10.45;;
40162;SDS011;25881;47.462;19.304;2023-05-07T04:37:25;17.83;;;10.00;;
40162;SDS011;25881;47.462;19.304;2023-05-07T04:39:52;24.17;;;11.43;;
40162;SDS011;25881;47.462;19.304;2023-05-07T04:42:18;18.50;;;9.23;;
40162;SDS011;25881;47.462;19.304;2023-05-07T04:44:46;17.70;;;9.80;;
40162;SDS011;25881;47.462;19.304;2023-05-07T04:47:16;19.70;;;10.18;;
40162;SDS011;25881;47.462;19.304;2023-05-07T04:49:43;21.30;;;11.23;;
40162;SDS011;25881;47.462;19.304;2023-05-07T04:52:08;18.92;;;9.93;;
40162;SDS011;25881;47.462;19.304;2023-05-07T04:54:36;20.50;;;11.30;;
40162;SDS011;25881;47.462;19.304;2023-05-07T04:57:03;21.60;;;10.40;;
40162;SDS011;25881;47.462;19.304;2023-05-07T04:59:29;22.15;;;11.27;;
40162;SDS011;25881;47.462;19.304;2023-05-07T05:01:54;24.30;;;11.50;;
40162;SDS011;25881;47.462;19.304;2023-05-07T05:04:21;22.88;;;12.23;;
40162;SDS011;25881;47.462;19.304;2023-05-07T05:06:49;21.52;;;11.45;;
40162;SDS011;25881;47.462;19.304;2023-05-07T05:09:15;22.48;;;12.00;;
40162;SDS011;25881;47.462;19.304;2023-05-07T05:11:44;21.35;;;10.93;;
40162;SDS011;25881;47.462;19.304;2023-05-07T05:14:11;19.58;;;10.23;;
40162;SDS011;25881;47.462;19.304;2023-05-07T05:16:40;21.98;;;11.55;;
40162;SDS011;25881;47.462;19.304;2023-05-07T05:19:07;21.75;;;11.13;;
40162;SDS011;25881;47.462;19.304;2023-05-07T05:21:33;20.88;;;11.00;;
40162;SDS011;25881;47.462;19.304;2023-05-07T05:23:59;21.63;;;11.63;;
40162;SDS011;25881;47.462;19.304;2023-05-07T05:26:25;22.48;;;10.32;;
40162;SDS011;25881;47.462;19.304;2023-05-07T05:28:53;21.48;;;10.98;;
40162;SDS011;25881;47.462;19.304;2023-05-07T05:31:18;25.00;;;11.85;;
40162;SDS011;25881;47.462;19.304;2023-05-07T05:33:46;22.92;;;11.75;;
40162;SDS011;25881;47.462;19.304;2023-05-07T05:36:12;21.42;;;10.40;;
40162;SDS011;25881;47.462;19.304;2023-05-07T05:38:38;22.92;;;11.95;;
40162;SDS011;25881;47.462;19.304;2023-05-07T05:41:04;24.42;;;12.07;;
40162;SDS011;25881;47.462;19.304;2023-05-07T05:43:32;24.58;;;13.07;;
40162;SDS011;25881;47.462;19.304;2023-05-07T05:45:58;21.13;;;10.18;;
40162;SDS011;25881;47.462;19.304;2023-05-07T05:48:24;20.38;;;10.60;;
40162;SDS011;25881;47.462;19.304;2023-05-07T05:50:50;19.73;;;10.30;;
40162;SDS011;25881;47.462;19.304;2023-05-07T05:53:20;20.33;;;12.30;;
40162;SDS011;25881;47.462;19.304;2023-05-07T05:55:47;18.00;;;9.20;;
40162;SDS011;25881;47.462;19.304;2023-05-07T05:58:13;18.20;;;9.85;;
40162;SDS011;25881;47.462;19.304;2023-05-07T06:00:48;18.75;;;8.82;;
40162;SDS011;25881;47.462;19.304;2023-05-07T06:03:17;17.92;;;9.13;;
40162;SDS011;25881;47.462;19.304;2023-05-07T06:05:43;18.80;;;9.90;;
40162;SDS011;25881;47.462;19.304;2023-05-07T06:08:12;21.55;;;10.25;;
40162;SDS011;25881;47.462;19.304;2023-05-07T06:10:39;22.88;;;11.75;;
40162;SDS011;25881;47.462;19.304;2023-05-07T06:13:08;17.52;;;9.75;;
40162;SDS011;25881;47.462;19.304;2023-05-07T06:15:34;14.05;;;7.30;;
40162;SDS011;25881;47.462;19.304;2023-05-07T06:17:59;13.05;;;7.25;;
40162;SDS011;25881;47.462;19.304;2023-05-07T06:20:24;13.35;;;6.82;;
40162;SDS011;25881;47.462;19.304;2023-05-07T06:22:50;10.05;;;5.15;;
40162;SDS011;25881;47.462;19.304;2023-05-07T06:25:16;11.88;;;6.00;;
40162;SDS011;25881;47.462;19.304;2023-05-07T06:27:41;10.52;;;5.97;;
40162;SDS011;25881;47.462;19.304;2023-05-07T06:30:08;9.35;;;5.75;;
40162;SDS011;25881;47.462;19.304;2023-05-07T06:32:36;10.77;;;5.70;;
40162;SDS011;25881;47.462;19.304;2023-05-07T06:35:01;12.13;;;6.10;;
40162;SDS011;25881;47.462;19.304;2023-05-07T06:37:33;14.73;;;7.97;;
40162;SDS011;25881;47.462;19.304;2023-05-07T06:39:59;13.80;;;7.70;;
40162;SDS011;25881;47.462;19.304;2023-05-07T06:42:27;15.25;;;8.27;;
40162;SDS011;25881;47.462;19.304;2023-05-07T06:44:54;13.32;;;6.40;;
40162;SDS011;25881;47.462;19.304;2023-05-07T06:47:21;10.73;;;6.75;;
40162;SDS011;25881;47.462;19.304;2023-05-07T06:49:50;12.20;;;5.10;;
40162;SDS011;25881;47.462;19.304;2023-05-07T06:52:17;10.43;;;6.20;;
40162;SDS011;25881;47.462;19.304;2023-05-07T06:54:42;9.95;;;5.70;;
40162;SDS011;25881;47.462;19.304;2023-05-07T06:57:08;6.32;;;4.13;;
40162;SDS011;25881;47.462;19.304;2023-05-07T06:59:33;7.97;;;4.93;;
40162;SDS011;25881;47.462;19.304;2023-05-07T07:01:58;8.07;;;4.18;;
40162;SDS011;25881;47.462;19.304;2023-05-07T07:04:24;7.22;;;4.55;;
40162;SDS011;25881;47.462;19.304;2023-05-07T07:06:51;8.07;;;4.50;;
40162;SDS011;25881;47.462;19.304;2023-05-07T07:11:43;8.83;;;4.80;;
40162;SDS011;25881;47.462;19.304;2023-05-07T07:14:12;9.98;;;4.70;;
40162;SDS011;25881;47.462;19.304;2023-05-07T07:16:38;10.10;;;5.68;;
40162;SDS011;25881;47.462;19.304;2023-05-07T07:19:03;10.18;;;5.97;;
40162;SDS011;25881;47.462;19.304;2023-05-07T07:21:30;11.77;;;5.88;;
40162;SDS011;25881;47.462;19.304;2023-05-07T07:23:57;8.70;;;4.65;;
40162;SDS011;25881;47.462;19.304;2023-05-07T07:26:28;6.60;;;4.22;;
40162;SDS011;25881;47.462;19.304;2023-05-07T07:29:01;8.00;;;3.85;;
40162;SDS011;25881;47.462;19.304;2023-05-07T07:31:27;8.82;;;4.10;;
40162;SDS011;25881;47.462;19.304;2023-05-07T07:33:56;5.03;;;2.60;;
40162;SDS011;25881;47.462;19.304;2023-05-07T07:36:23;4.50;;;3.10;;
40162;SDS011;25881;47.462;19.304;2023-05-07T07:38:59;3.40;;;2.13;;
40162;SDS011;25881;47.462;19.304;2023-05-07T07:41:25;5.18;;;2.63;;
40162;SDS011;25881;47.462;19.304;2023-05-07T07:43:51;5.35;;;2.88;;
40162;SDS011;25881;47.462;19.304;2023-05-07T07:46:19;3.78;;;2.28;;
40162;SDS011;25881;47.462;19.304;2023-05-07T07:48:46;3.20;;;1.92;;
40162;SDS011;25881;47.462;19.304;2023-05-07T07:51:16;3.55;;;2.00;;
40162;SDS011;25881;47.462;19.304;2023-05-07T07:53:44;3.17;;;2.08;;
40162;SDS011;25881;47.462;19.304;2023-05-07T07:56:11;3.40;;;1.95;;
40162;SDS011;25881;47.462;19.304;2023-05-07T07:58:37;5.70;;;2.00;;
40162;SDS011;25881;47.462;19.304;2023-05-07T08:01:03;3.33;;;1.90;;
40162;SDS011;25881;47.462;19.304;2023-05-07T08:03:28;5.70;;;2.33;;
40162;SDS011;25881;47.462;19.304;2023-05-07T08:05:57;4.05;;;2.45;;
40162;SDS011;25881;47.462;19.304;2023-05-07T08:08:22;5.43;;;2.38;;
40162;SDS011;25881;47.462;19.304;2023-05-07T08:11:08;3.75;;;2.50;;
40162;SDS011;25881;47.462;19.304;2023-05-07T08:13:47;4.70;;;3.17;;
40162;SDS011;25881;47.462;19.304;2023-05-07T08:16:15;6.32;;;3.40;;
40162;SDS011;25881;47.462;19.304;2023-05-07T08:18:41;5.03;;;2.80;;
40162;SDS011;25881;47.462;19.304;2023-05-07T08:21:07;4.78;;;2.80;;
40162;SDS011;25881;47.462;19.304;2023-05-07T08:23:33;4.72;;;2.60;;
40162;SDS011;25881;47.462;19.304;2023-05-07T08:25:59;4.85;;;2.78;;
40162;SDS011;25881;47.462;19.304;2023-05-07T08:28:25;3.60;;;2.13;;
40162;SDS011;25881;47.462;19.304;2023-05-07T08:30:52;4.30;;;2.70;;
40162;SDS011;25881;47.462;19.304;2023-05-07T08:33:19;2.80;;;1.98;;
40162;SDS011;25881;47.462;19.304;2023-05-07T08:35:46;4.43;;;2.03;;
40162;SDS011;25881;47.462;19.304;2023-05-07T08:38:13;3.05;;;1.95;;
40162;SDS011;25881;47.462;19.304;2023-05-07T08:40:40;3.97;;;1.75;;
40162;SDS011;25881;47.462;19.304;2023-05-07T08:43:08;3.05;;;1.90;;
40162;SDS011;25881;47.462;19.304;2023-05-07T08:45:37;3.05;;;1.70;;
40162;SDS011;25881;47.462;19.304;2023-05-07T08:48:14;2.35;;;1.27;;
40162;SDS011;25881;47.462;19.304;2023-05-07T08:50:48;5.30;;;1.83;;
40162;SDS011;25881;47.462;19.304;2023-05-07T08:53:16;2.42;;;1.50;;
40162;SDS011;25881;47.462;19.304;2023-05-07T08:55:42;2.30;;;1.55;;
40162;SDS011;25881;47.462;19.304;2023-05-07T08:58:09;2.47;;;1.67;;
40162;SDS011;25881;47.462;19.304;2023-05-07T09:00:36;1.52;;;1.35;;
40162;SDS011;25881;47.462;19.304;2023-05-07T09:03:01;1.75;;;1.38;;
40162;SDS011;25881;47.462;19.304;2023-05-07T09:05:27;3.33;;;1.65;;
40162;SDS011;25881;47.462;19.304;2023-05-07T09:08:06;2.67;;;1.55;;
40162;SDS011;25881;47.462;19.304;2023-05-07T09:10:37;2.47;;;1.50;;
40162;SDS011;25881;47.462;19.304;2023-05-07T09:13:02;3.10;;;1.90;;
40162;SDS011;25881;47.462;19.304;2023-05-07T09:15:31;2.97;;;1.75;;
40162;SDS011;25881;47.462;19.304;2023-05-07T09:18:01;2.78;;;1.48;;
40162;SDS011;25881;47.462;19.304;2023-05-07T09:20:32;2.13;;;1.33;;
40162;SDS011;25881;47.462;19.304;2023-05-07T09:23:01;2.83;;;1.55;;
40162;SDS011;25881;47.462;19.304;2023-05-07T09:25:30;2.33;;;1.48;;
40162;SDS011;25881;47.462;19.304;2023-05-07T09:27:56;2.03;;;1.33;;
40162;SDS011;25881;47.462;19.304;2023-05-07T09:30:27;2.95;;;1.65;;
40162;SDS011;25881;47.462;19.304;2023-05-07T09:32:53;3.50;;;1.60;;
40162;SDS011;25881;47.462;19.304;2023-05-07T09:35:18;2.83;;;1.50;;
40162;SDS011;25881;47.462;19.304;2023-05-07T09:37:46;4.22;;;1.95;;
40162;SDS011;25881;47.462;19.304;2023-05-07T09:40:21;3.55;;;2.00;;
40162;SDS011;25881;47.462;19.304;2023-05-07T09:42:47;2.75;;;1.73;;
40162;SDS011;25881;47.462;19.304;2023-05-07T09:45:13;2.90;;;1.88;;
40162;SDS011;25881;47.462;19.304;2023-05-07T09:47:41;2.72;;;1.63;;
40162;SDS011;25881;47.462;19.304;2023-05-07T09:52:36;3.67;;;2.22;;
40162;SDS011;25881;47.462;19.304;2023-05-07T09:55:01;3.47;;;1.90;;
40162;SDS011;25881;47.462;19.304;2023-05-07T09:57:29;3.65;;;2.15;;
40162;SDS011;25881;47.462;19.304;2023-05-07T09:59:56;3.15;;;1.92;;
40162;SDS011;25881;47.462;19.304;2023-05-07T10:02:22;3.00;;;1.75;;
40162;SDS011;25881;47.462;19.304;2023-05-07T10:04:49;2.20;;;1.50;;
40162;SDS011;25881;47.462;19.304;2023-05-07T10:07:16;3.38;;;1.92;;
40162;SDS011;25881;47.462;19.304;2023-05-07T10:09:41;4.68;;;1.80;;
40162;SDS011;25881;47.462;19.304;2023-05-07T10:12:10;2.58;;;1.60;;
40162;SDS011;25881;47.462;19.304;2023-05-07T10:14:51;2.33;;;1.45;;
40162;SDS011;25881;47.462;19.304;2023-05-07T10:17:20;3.45;;;1.80;;
40162;SDS011;25881;47.462;19.304;2023-05-07T10:19:46;2.88;;;1.88;;
40162;SDS011;25881;47.462;19.304;2023-05-07T10:22:14;3.15;;;1.80;;
40162;SDS011;25881;47.462;19.304;2023-05-07T10:24:42;3.55;;;1.58;;
40162;SDS011;25881;47.462;19.304;2023-05-07T10:27:10;2.63;;;1.67;;
40162;SDS011;25881;47.462;19.304;2023-05-07T10:29:49;2.22;;;1.60;;
40162;SDS011;25881;47.462;19.304;2023-05-07T10:32:28;2.47;;;1.65;;
40162;SDS011;25881;47.462;19.304;2023-05-07T10:34:56;4.00;;;2.25;;
40162;SDS011;25881;47.462;19.304;2023-05-07T10:37:25;2.45;;;1.58;;
40162;SDS011;25881;47.462;19.304;2023-05-07T10:39:51;3.08;;;1.70;;
40162;SDS011;25881;47.462;19.304;2023-05-07T10:42:18;2.72;;;1.85;;
40162;SDS011;25881;47.462;19.304;2023-05-07T10:44:44;2.13;;;1.50;;
40162;SDS011;25881;47.462;19.304;2023-05-07T10:47:10;2.50;;;1.55;;
40162;SDS011;25881;47.462;19.304;2023-05-07T10:52:21;3.03;;;1.65;;
40162;SDS011;25881;47.462;19.304;2023-05-07T10:55:19;4.20;;;2.13;;
40162;SDS011;25881;47.462;19.304;2023-05-07T10:57:36;3.72;;;2.20;;
40162;SDS011;25881;47.462;19.304;2023-05-07T11:00:03;2.60;;;1.80;;
40162;SDS011;25881;47.462;19.304;2023-05-07T11:05:21;2.33;;;1.52;;
40162;SDS011;25881;47.462;19.304;2023-05-07T11:07:54;1.88;;;1.45;;
40162;SDS011;25881;47.462;19.304;2023-05-07T11:10:21;3.47;;;2.25;;
40162;SDS011;25881;47.462;19.304;2023-05-07T11:12:47;4.85;;;2.30;;
40162;SDS011;25881;47.462;19.304;2023-05-07T11:15:13;3.03;;;1.60;;
40162;SDS011;25881;47.462;19.304;2023-05-07T11:17:55;4.90;;;2.13;;
40162;SDS011;25881;47.462;19.304;2023-05-07T11:20:22;2.60;;;1.65;;
40162;SDS011;25881;47.462;19.304;2023-05-07T11:23:54;4.43;;;2.53;;
40162;SDS011;25881;47.462;19.304;2023-05-07T11:26:10;3.65;;;2.00;;
40162;SDS011;25881;47.462;19.304;2023-05-07T11:28:41;3.85;;;2.03;;
40162;SDS011;25881;47.462;19.304;2023-05-07T11:31:07;4.10;;;2.05;;
40162;SDS011;25881;47.462;19.304;2023-05-07T11:33:33;4.47;;;2.28;;
40162;SDS011;25881;47.462;19.304;2023-05-07T11:35:59;3.83;;;2.13;;
40162;SDS011;25881;47.462;19.304;2023-05-07T11:38:26;4.43;;;2.03;;
40162;SDS011;25881;47.462;19.304;2023-05-07T11:40:52;3.75;;;2.28;;
40162;SDS011;25881;47.462;19.304;2023-05-07T11:43:20;4.28;;;2.45;;
40162;SDS011;25881;47.462;19.304;2023-05-07T11:45:46;5.78;;;2.28;;
40162;SDS011;25881;47.462;19.304;2023-05-07T11:48:17;2.92;;;2.10;;
40162;SDS011;25881;47.462;19.304;2023-05-07T11:53:42;2.92;;;2.25;;
40162;SDS011;25881;47.462;19.304;2023-05-07T11:56:14;4.35;;;2.22;;
40162;SDS011;25881;47.462;19.304;2023-05-07T11:58:41;3.55;;;2.03;;
40162;SDS011;25881;47.462;19.304;2023-05-07T12:01:07;3.37;;;1.90;;
40162;SDS011;25881;47.462;19.304;2023-05-07T12:03:35;3.20;;;1.77;;
40162;SDS011;25881;47.462;19.304;2023-05-07T12:08:27;3.45;;;2.42;;
40162;SDS011;25881;47.462;19.304;2023-05-07T12:10:54;3.75;;;2.53;;
40162;SDS011;25881;47.462;19.304;2023-05-07T12:13:21;4.33;;;2.60;;
40162;SDS011;25881;47.462;19.304;2023-05-07T12:15:54;4.50;;;2.55;;
40162;SDS011;25881;47.462;19.304;2023-05-07T12:18:22;3.15;;;2.00;;
40162;SDS011;25881;47.462;19.304;2023-05-07T12:20:49;6.32;;;1.60;;
40162;SDS011;25881;47.462;19.304;2023-05-07T12:23:15;1.70;;;1.60;;
40162;SDS011;25881;47.462;19.304;2023-05-07T12:25:42;3.22;;;2.28;;
40162;SDS011;25881;47.462;19.304;2023-05-07T12:28:15;2.80;;;1.98;;
40162;SDS011;25881;47.462;19.304;2023-05-07T12:30:42;3.55;;;2.30;;
40162;SDS011;25881;47.462;19.304;2023-05-07T12:33:08;3.42;;;2.03;;
40162;SDS011;25881;47.462;19.304;2023-05-07T12:35:38;2.78;;;1.60;;
40162;SDS011;25881;47.462;19.304;2023-05-07T12:38:07;3.63;;;2.03;;
40162;SDS011;25881;47.462;19.304;2023-05-07T12:40:41;3.10;;;2.10;;
40162;SDS011;25881;47.462;19.304;2023-05-07T12:45:45;3.33;;;1.92;;
40162;SDS011;25881;47.462;19.304;2023-05-07T12:48:11;2.92;;;1.27;;
40162;SDS011;25881;47.462;19.304;2023-05-07T12:50:37;2.58;;;1.80;;
40162;SDS011;25881;47.462;19.304;2023-05-07T12:53:04;3.28;;;1.90;;
40162;SDS011;25881;47.462;19.304;2023-05-07T12:55:31;3.83;;;1.90;;
40162;SDS011;25881;47.462;19.304;2023-05-07T12:57:56;2.95;;;1.80;;
40162;SDS011;25881;47.462;19.304;2023-05-07T13:00:38;3.97;;;2.45;;
40162;SDS011;25881;47.462;19.304;2023-05-07T13:03:04;9.35;;;2.90;;
40162;SDS011;25881;47.462;19.304;2023-05-07T13:05:30;5.13;;;2.70;;
40162;SDS011;25881;47.462;19.304;2023-05-07T13:07:56;7.72;;;3.97;;
40162;SDS011;25881;47.462;19.304;2023-05-07T13:10:25;7.55;;;3.75;;
40162;SDS011;25881;47.462;19.304;2023-05-07T13:12:50;5.60;;;2.58;;
40162;SDS011;25881;47.462;19.304;2023-05-07T13:15:16;3.42;;;1.63;;
40162;SDS011;25881;47.462;19.304;2023-05-07T13:17:42;2.65;;;2.13;;
40162;SDS011;25881;47.462;19.304;2023-05-07T13:20:11;2.03;;;1.65;;
40162;SDS011;25881;47.462;19.304;2023-05-07T13:22:38;2.88;;;2.10;;
40162;SDS011;25881;47.462;19.304;2023-05-07T13:25:04;2.85;;;2.00;;
40162;SDS011;25881;47.462;19.304;2023-05-07T13:27:30;2.95;;;2.03;;
40162;SDS011;25881;47.462;19.304;2023-05-07T13:29:57;3.00;;;1.77;;
40162;SDS011;25881;47.462;19.304;2023-05-07T13:32:22;4.63;;;2.22;;
40162;SDS011;25881;47.462;19.304;2023-05-07T13:34:48;5.53;;;2.10;;
40162;SDS011;25881;47.462;19.304;2023-05-07T13:37:15;3.20;;;2.25;;
40162;SDS011;25881;47.462;19.304;2023-05-07T13:39:41;3.30;;;2.10;;
40162;SDS011;25881;47.462;19.304;2023-05-07T13:42:06;2.05;;;1.70;;
40162;SDS011;25881;47.462;19.304;2023-05-07T13:44:32;4.65;;;2.10;;
40162;SDS011;25881;47.462;19.304;2023-05-07T13:46:57;2.85;;;2.03;;
40162;SDS011;25881;47.462;19.304;2023-05-07T13:49:23;2.92;;;2.20;;
40162;SDS011;25881;47.462;19.304;2023-05-07T13:51:49;5.20;;;2.00;;
40162;SDS011;25881;47.462;19.304;2023-05-07T13:54:15;2.03;;;1.45;;
40162;SDS011;25881;47.462;19.304;2023-05-07T13:56:41;2.55;;;1.77;;
40162;SDS011;25881;47.462;19.304;2023-05-07T13:59:06;2.03;;;1.58;;
40162;SDS011;25881;47.462;19.304;2023-05-07T14:01:32;2.70;;;1.80;;
40162;SDS011;25881;47.462;19.304;2023-05-07T14:03:57;4.10;;;1.80;;
40162;SDS011;25881;47.462;19.304;2023-05-07T14:06:24;5.32;;;1.95;;
40162;SDS011;25881;47.462;19.304;2023-05-07T14:08:50;3.33;;;1.80;;
40162;SDS011;25881;47.462;19.304;2023-05-07T14:11:15;2.78;;;1.75;;
40162;SDS011;25881;47.462;19.304;2023-05-07T14:13:41;4.03;;;1.70;;
40162;SDS011;25881;47.462;19.304;2023-05-07T14:16:06;3.55;;;1.77;;
40162;SDS011;25881;47.462;19.304;2023-05-07T14:18:32;2.33;;;1.63;;
40162;SDS011;25881;47.462;19.304;2023-05-07T14:20:59;2.83;;;1.83;;
40162;SDS011;25881;47.462;19.304;2023-05-07T14:23:24;2.28;;;1.40;;
40162;SDS011;25881;47.462;19.304;2023-05-07T14:25:52;4.38;;;1.90;;
40162;SDS011;25881;47.462;19.304;2023-05-07T14:28:19;2.80;;;1.67;;
40162;SDS011;25881;47.462;19.304;2023-05-07T14:30:46;1.60;;;1.45;;
40162;SDS011;25881;47.462;19.304;2023-05-07T14:33:11;3.42;;;1.73;;
40162;SDS011;25881;47.462;19.304;2023-05-07T14:35:37;1.92;;;1.40;;
40162;SDS011;25881;47.462;19.304;2023-05-07T14:38:02;2.35;;;1.70;;
40162;SDS011;25881;47.462;19.304;2023-05-07T14:40:28;3.67;;;1.60;;
40162;SDS011;25881;47.462;19.304;2023-05-07T14:42:53;2.42;;;1.90;;
40162;SDS011;25881;47.462;19.304;2023-05-07T14:45:20;3.15;;;1.77;;
40162;SDS011;25881;47.462;19.304;2023-05-07T14:47:46;3.83;;;1.95;;
40162;SDS011;25881;47.462;19.304;2023-05-07T14:50:12;3.10;;;1.95;;
40162;SDS011;25881;47.462;19.304;2023-05-07T14:52:38;3.42;;;1.80;;